ENOV

Ørsta-Volda , Hovden Airport

Ørsta, Norway
METAR ENOV 230920Z 21007KT 120V290 9999 -SHRA FEW008 SCT019 BKN026 05/02 Q1000 RMK WIND 2175FT 29024KT
Observed Flight Rules
Oct-23 @ 09:20 UTC (38 minutes ago) Marginal Visual Flight Rules
Wind Visibility Clouds Conditions
210° at 7 knots 10,000+ meters
  • Few at 800' AGL
  • Scattered at 1,900' AGL
  • Broken at 2,600' AGL
  • Light Rain
Temperatures Readings
Current 5°C / 41°F
Dewpoint 2°C / 36°F
Humidity 81%
Altimeter 29.53" Hg
Pressure 1000 hPa
Elevation 74
METAR ENOV 230920Z 21007KT 120V290 9999 -SHRA FEW008 SCT019 BKN026 05/02 Q1000 RMK WIND 2175FT 29024KT
Observed Flight Rules
Oct-23 @ 09:20 UTC
(38 minutes ago)
MVFR
Wind Visibility
210° at 7 knots 10,000+ meters
Clouds
  • Few at 800' AGL
  • Scattered at 1,900' AGL
  • Broken at 2,600' AGL
Conditions
  • Light Rain
Temperature Dewpoint
5°C / 41°F 2°C / 36°F
Humidity Altimeter Pressure
81% 29.53" Hg 1000 hPa